createdAt,value
2018-06-21T00:00:24.616Z,52.8
2018-06-21T00:05:22.193Z,52.9
2018-06-21T00:10:19.439Z,53.1
2018-06-21T00:15:16.659Z,53.2
2018-06-21T00:20:13.872Z,53.4
2018-06-21T00:25:11.153Z,53.8
2018-06-21T00:30:08.412Z,53.9
2018-06-21T00:35:05.191Z,53.9
2018-06-21T00:40:02.821Z,54
2018-06-21T00:44:59.510Z,54.2
2018-06-21T00:49:56.769Z,54.5
2018-06-21T00:54:54.477Z,54.7
2018-06-21T00:59:51.719Z,54.9
2018-06-21T01:04:48.803Z,55.1
2018-06-21T01:09:46.236Z,55.7
2018-06-21T01:14:43.242Z,55.8
2018-06-21T01:19:40.422Z,56.3
2018-06-21T01:24:37.769Z,56.2
2018-06-21T01:29:34.980Z,56.1
2018-06-21T01:34:32.161Z,56
2018-06-21T01:39:29.456Z,55.9
2018-06-21T01:44:26.625Z,56.5
2018-06-21T01:49:23.866Z,56.3
2018-06-21T01:54:21.115Z,56.5
2018-06-21T01:59:18.604Z,56.4
2018-06-21T02:04:15.920Z,56.7
2018-06-21T02:09:13.475Z,56.8
2018-06-21T02:14:10.742Z,57
2018-06-21T02:19:08.291Z,57.2
2018-06-21T02:24:05.996Z,57.3
2018-06-21T02:29:03.014Z,57.4
2018-06-21T02:34:00.613Z,57.5
2018-06-21T02:38:57.906Z,57.6
2018-06-21T02:43:55.480Z,57.8
2018-06-21T02:48:52.623Z,57.8
2018-06-21T02:53:50.706Z,58.1
2018-06-21T02:58:48.022Z,58.2
2018-06-21T03:03:45.592Z,58.4
2018-06-21T03:08:42.975Z,58.6
2018-06-21T03:13:40.405Z,58.6
2018-06-21T03:18:37.902Z,58.3
2018-06-21T03:23:34.939Z,58.4
2018-06-21T03:28:32.202Z,58.7
2018-06-21T03:33:29.385Z,58.9
2018-06-21T03:38:26.763Z,59
2018-06-21T03:43:23.987Z,59.1
2018-06-21T03:48:21.346Z,59
2018-06-21T03:53:18.285Z,59.5
2018-06-21T03:58:15.703Z,59.5
2018-06-21T04:03:12.890Z,59.7
2018-06-21T04:08:10.179Z,59.5
2018-06-21T04:13:07.288Z,59.6
2018-06-21T04:18:04.467Z,59.8
2018-06-21T04:23:01.783Z,59.6
2018-06-21T04:27:59.215Z,60
2018-06-21T04:32:56.338Z,59.8
2018-06-21T04:37:53.636Z,59.7
2018-06-21T04:42:50.720Z,60
2018-06-21T04:47:48.057Z,59.8
2018-06-21T04:52:45.628Z,59.9
2018-06-21T04:57:43.131Z,59.7
2018-06-21T05:02:40.314Z,59.5
2018-06-21T05:07:37.437Z,59.5
2018-06-21T05:12:34.644Z,59.5
2018-06-21T05:17:31.900Z,59.5
2018-06-21T05:22:29.192Z,59.5
2018-06-21T05:27:26.223Z,59.5
2018-06-21T05:32:23.474Z,59.4
2018-06-21T05:37:20.942Z,59.5
2018-06-21T05:42:18.401Z,59.5
2018-06-21T05:47:15.831Z,59.5
2018-06-21T05:52:13.041Z,59.2
2018-06-21T05:57:10.054Z,59.5
2018-06-21T06:02:07.350Z,59.4
2018-06-21T06:07:04.416Z,59.2
2018-06-21T06:12:01.170Z,59.1
2018-06-21T06:16:58.857Z,59
2018-06-21T06:21:55.519Z,59.2
2018-06-21T06:26:52.790Z,58.9
2018-06-21T06:31:49.872Z,58.5
2018-06-21T06:36:47.123Z,58.5
2018-06-21T06:41:44.261Z,58.5
2018-06-21T06:46:41.579Z,58.5
2018-06-21T06:51:40.073Z,58.3
2018-06-21T06:56:36.882Z,58
2018-06-21T07:01:33.638Z,57.9
2018-06-21T07:06:30.739Z,57.7
2018-06-21T07:11:28.162Z,57.6
2018-06-21T07:16:25.596Z,57.5
2018-06-21T07:21:23.063Z,57.4
2018-06-21T07:26:20.343Z,57.2
2018-06-21T07:31:17.574Z,56.6
2018-06-21T07:36:15.158Z,56.6
2018-06-21T07:41:12.374Z,56.8
2018-06-21T07:46:09.772Z,56.4
2018-06-21T07:51:07.175Z,56
2018-06-21T07:56:04.350Z,55.9
2018-06-21T08:01:01.734Z,55.6
2018-06-21T08:05:59.039Z,55.2
2018-06-21T08:10:56.221Z,55.2
2018-06-21T08:15:53.525Z,55
2018-06-21T08:20:50.804Z,55
2018-06-21T08:25:47.937Z,55
2018-06-21T08:30:45.413Z,54.6
2018-06-21T08:35:42.917Z,54.5
2018-06-21T08:40:40.116Z,54.4
2018-06-21T08:45:37.529Z,54.1
2018-06-21T08:50:34.919Z,54.2
2018-06-21T08:55:32.596Z,53.7
2018-06-21T09:00:29.497Z,52.6
2018-06-21T09:05:26.555Z,52.1
2018-06-21T09:10:23.876Z,51.5
2018-06-21T09:15:21.015Z,50.3
2018-06-21T09:20:18.242Z,50.4
2018-06-21T09:25:15.636Z,50.3
2018-06-21T09:30:13.065Z,49.8
2018-06-21T09:35:10.399Z,49.6
2018-06-21T09:40:07.838Z,48.3
2018-06-21T09:45:05.547Z,48
2018-06-21T09:50:03.249Z,46.6
2018-06-21T09:55:00.933Z,46.1
2018-06-21T09:59:58.363Z,45.7
2018-06-21T10:04:55.683Z,44.3
2018-06-21T10:09:52.941Z,44.7
2018-06-21T10:14:50.441Z,44.7
2018-06-21T10:19:47.345Z,48.3
2018-06-21T10:24:44.749Z,49.9
2018-06-21T10:29:41.803Z,51.7
2018-06-21T10:34:39.181Z,51.4
2018-06-21T10:39:36.572Z,51.4
2018-06-21T10:44:33.839Z,51.1
2018-06-21T10:49:31.654Z,50.5
2018-06-21T10:54:28.792Z,50.6
2018-06-21T10:59:26.124Z,50.4
2018-06-21T11:04:23.764Z,49.2
2018-06-21T11:09:21.211Z,49.2
2018-06-21T11:14:18.637Z,49.1
2018-06-21T11:19:16.000Z,49.2
2018-06-21T11:24:13.427Z,47.9
2018-06-21T11:29:10.930Z,47.7
2018-06-21T11:34:08.229Z,48.3
2018-06-21T11:39:06.049Z,48
2018-06-21T11:44:03.190Z,48.1
2018-06-21T11:49:00.482Z,48.1
2018-06-21T11:53:57.818Z,48.5
2018-06-21T11:58:55.609Z,48.9
2018-06-21T12:03:52.427Z,49.3
2018-06-21T12:08:49.740Z,49.1
2018-06-21T12:13:46.840Z,47.9
2018-06-21T12:18:44.162Z,48.2
2018-06-21T12:23:41.285Z,48.4
2018-06-21T12:28:38.719Z,49.3
2018-06-21T12:33:36.012Z,50.2
2018-06-21T12:38:33.216Z,50.4
2018-06-21T12:43:30.549Z,50.3
2018-06-21T12:48:27.759Z,49.9
2018-06-21T12:53:25.031Z,49.7
2018-06-21T12:58:22.579Z,49
2018-06-21T13:03:20.214Z,48.2
2018-06-21T13:08:17.373Z,47.5
2018-06-21T13:13:14.830Z,46.3
2018-06-21T13:18:12.353Z,45.8
2018-06-21T13:23:10.269Z,45.1
2018-06-21T13:28:06.718Z,45.4
2018-06-21T13:33:04.187Z,45.7
2018-06-21T13:38:01.635Z,46.1
2018-06-21T13:42:59.236Z,46.6
2018-06-21T13:47:56.378Z,47
2018-06-21T13:52:53.633Z,47
2018-06-21T13:57:51.049Z,47
2018-06-21T14:02:48.361Z,46.8
2018-06-21T14:07:46.350Z,46.6
2018-06-21T14:12:43.566Z,46.4
2018-06-21T14:17:41.152Z,46.3
2018-06-21T14:22:38.576Z,46
2018-06-21T14:27:35.640Z,45.8
2018-06-21T14:32:33.043Z,45.1
2018-06-21T14:37:30.447Z,45.2
2018-06-21T14:42:28.654Z,45.3
2018-06-21T14:47:26.230Z,45.7
2018-06-21T14:52:23.642Z,45.8
2018-06-21T14:57:20.952Z,45.9
2018-06-21T15:02:18.089Z,45.9
2018-06-21T15:07:15.458Z,46.1
2018-06-21T15:12:12.651Z,46
2018-06-21T15:17:09.947Z,46.4
2018-06-21T15:22:07.225Z,46.7
2018-06-21T15:27:04.907Z,47.1
2018-06-21T15:32:01.921Z,47.1
2018-06-21T15:36:59.316Z,46.9
2018-06-21T15:41:56.643Z,47.2
2018-06-21T15:46:53.641Z,47.6
2018-06-21T15:51:51.026Z,47.7
2018-06-21T15:56:47.968Z,47.5
2018-06-21T16:01:45.282Z,47.6
2018-06-21T16:06:42.930Z,47.7
2018-06-21T16:11:40.331Z,47.8
2018-06-21T16:16:37.605Z,47.9
2018-06-21T16:21:34.819Z,48
2018-06-21T16:26:32.259Z,48
2018-06-21T16:31:29.477Z,47.8
2018-06-21T16:36:26.538Z,47
2018-06-21T16:41:24.118Z,46.7
2018-06-21T16:46:21.637Z,46.8
2018-06-21T16:51:18.886Z,46.9
2018-06-21T16:56:16.239Z,46.6
2018-06-21T17:01:13.709Z,46.7
2018-06-21T17:06:10.569Z,47
2018-06-21T17:11:07.767Z,47.2
2018-06-21T17:16:05.091Z,47.3
2018-06-21T17:21:02.497Z,47.6
2018-06-21T17:25:59.593Z,48.1
2018-06-21T17:30:56.381Z,49.1
2018-06-21T17:35:53.468Z,49.6
2018-06-21T17:40:50.824Z,49.7
2018-06-21T17:45:47.953Z,49.9
2018-06-21T17:50:45.262Z,50.2
2018-06-21T17:55:42.583Z,50.4
2018-06-21T18:00:39.356Z,50.6
2018-06-21T18:05:36.561Z,50.8
2018-06-21T18:10:33.939Z,50.8
2018-06-21T18:15:31.080Z,50.9
2018-06-21T18:20:28.825Z,51.2
2018-06-21T18:25:26.435Z,51.5
2018-06-21T18:30:23.642Z,51.5
2018-06-21T18:35:21.481Z,51.7
2018-06-21T18:40:18.865Z,51.6
2018-06-21T18:45:16.206Z,51.8
2018-06-21T18:50:13.493Z,51.8
2018-06-21T18:55:10.460Z,51.7
2018-06-21T19:00:07.768Z,51.9
2018-06-21T19:05:04.986Z,51.4
2018-06-21T19:10:02.337Z,51.5
2018-06-21T19:14:59.742Z,51.7
2018-06-21T19:19:57.108Z,51.9
2018-06-21T19:24:54.126Z,52.3
2018-06-21T19:29:51.484Z,52.5
2018-06-21T19:34:48.659Z,52.6
2018-06-21T19:39:45.997Z,52.7
2018-06-21T19:44:43.033Z,53
2018-06-21T19:49:40.123Z,53.1
2018-06-21T19:54:37.550Z,53.2
2018-06-21T19:59:34.784Z,53.5
2018-06-21T20:04:31.847Z,53.6
2018-06-21T20:09:29.019Z,53.8
2018-06-21T20:14:26.189Z,54.1
2018-06-21T20:19:23.322Z,54.1
2018-06-21T20:24:20.618Z,54.5
2018-06-21T20:29:18.897Z,54.7
2018-06-21T20:34:15.936Z,54.8
2018-06-21T20:39:13.380Z,55
2018-06-21T20:44:09.808Z,54.8
2018-06-21T20:49:07.604Z,54.8
2018-06-21T20:54:04.642Z,54.6
2018-06-21T20:59:01.880Z,54.3
2018-06-21T21:03:59.022Z,54.3
2018-06-21T21:08:56.233Z,54.1
2018-06-21T21:13:53.563Z,54.2
2018-06-21T21:18:51.049Z,54.3
2018-06-21T21:23:48.646Z,54.4
2018-06-21T21:28:45.741Z,54.2
2018-06-21T21:33:42.579Z,54.5
2018-06-21T21:38:40.445Z,54.8
2018-06-21T21:43:37.439Z,54.8
2018-06-21T21:48:34.769Z,54.8
2018-06-21T21:53:32.297Z,55.2
2018-06-21T21:58:29.625Z,55.1
2018-06-21T22:03:26.875Z,55.5
2018-06-21T22:08:23.849Z,55.7
2018-06-21T22:13:21.099Z,55.9
2018-06-21T22:18:17.803Z,56.1
2018-06-21T22:23:14.907Z,56.1
2018-06-21T22:28:12.132Z,56.4
2018-06-21T22:33:09.025Z,56.4
2018-06-21T22:38:06.242Z,56.7
2018-06-21T22:43:03.125Z,56.7
2018-06-21T22:48:00.341Z,56.9
2018-06-21T22:52:57.472Z,57.3
2018-06-21T22:57:54.270Z,57.5
2018-06-21T23:02:51.522Z,57.4
2018-06-21T23:07:48.484Z,57.5
2018-06-21T23:12:45.679Z,57.7
2018-06-21T23:17:42.263Z,57.9
2018-06-21T23:22:39.578Z,57.9
2018-06-21T23:27:36.718Z,58
2018-06-21T23:32:33.468Z,58.1
2018-06-21T23:37:31.016Z,58.1
2018-06-21T23:42:27.976Z,58.4
2018-06-21T23:47:25.124Z,58.3
2018-06-21T23:52:22.750Z,58.3
2018-06-21T23:57:19.836Z,58.2
